Tropical Cyclones
[Index]
Season 2021-2022 Tropical Cyclone RUBY Track Map
Season 2021-2022 Summaries: [BoM-AU]
<<- Previous TC | BoM 2021-2022 Season | Next TC ->>

click for intensity scale information  Lat/long Grid: Show Hide

 Date Labels: Show Hide

Bureau of Meteorology Tropical Cyclone Data

Name: RUBY

09 Dec 2021 00:00 UTC to 15 Dec 2021 12:00 UTC

    date/time    lat    long    hPa   cat  kts
2021-12-09 00    9.0   155.0   1006         20          
2021-12-09 06    9.1   155.2   1007         20          
2021-12-09 12    9.3   155.3   1005         25          
2021-12-09 18    9.4   155.3   1004         25          
2021-12-10 00    9.7   155.4   1002         25          
2021-12-10 06    9.8   155.6   1002         25          
2021-12-10 12   10.0   155.6   1002         25          
2021-12-10 18   10.3   155.7   1001         25          
2021-12-11 00   10.3   156.1   1002         30          
2021-12-11 06   10.9   156.4    998         30          
2021-12-11 12   11.6   156.5    998         30          
2021-12-11 18   12.9   156.9    997         30          
2021-12-12 00   14.1   157.3    997         35          
2021-12-12 06   14.7   157.7    995    1    40          
2021-12-12 12   15.5   158.0    995    1    45          
2021-12-12 15   15.9   158.4    991    1    50          
2021-12-12 18   16.4   158.8    988    1    50          
2021-12-13 00   17.4   159.7    982    2    60          
2021-12-13 06   18.4   161.2    980    2    60          
2021-12-13 12   19.3   162.4    975    2    60          
2021-12-13 18   20.0   163.8    978    2    60          
2021-12-14 00   21.3   165.4    981    2    55          
2021-12-14 04   21.9   166.6                            
2021-12-14 06   22.1   167.1    979    2    55          
2021-12-14 12   23.3   169.3    985    2    50          
2021-12-14 16   24.0   170.2                            
2021-12-15 00   25.2   172.0    983    2    50          
2021-12-15 06   26.8   174.6    987    1    45          
2021-12-15 12   28.5   176.6    987    1    45          
Winds are 10-min average.

Tropical cyclone tracks developed by Michael Bath using data from the Bureau of Meteorology and Google Maps.


Document: tropical_cyclone_ruby.htm
Updated: 23 June 2022
[Australian Severe Weather index] [Copyright Notice] [Email Contacts] [Search This Site] [Privacy Policy]


Main Index Home Page Stock Weather Photos Extreme Storms Discussion Storm News and Storm Chasing Reports Tropical Cyclones / Hurricanes / Typhoons Weather Data and Links Wild Fires / Bushfires Weather Observation Techniques Weather Picture Catalogue Tornado Pictures and Reports Stock Video Footage and DVDs for sale